RYR93QA EHEH-LIPH
Flight info
| Callsign | RYR93QA |
|---|---|
| Flight time | 1h 16m |
| Altitude | 37000 |
| Route | LNO5J LNO Z283 RITAX UT27 ROUSY DCT GTQ DCT DEVDI DCT RIPUS DCT RESIA DCT TAGIP P131 ADOSA ADOSA1A |
| Aircraft | B738/M-SDE2E3FGHIRWXY/LB1 |
Departure
| Time | 2026-04-28 18:02 |
|---|---|
| Airport | Eindhoven Airport (EHEH) |
Arrival
| Time | 2026-04-28 19:19 |
|---|---|
| Airport | Treviso Airport (LIPH) |
| Time | Latitude | Longitude | Altitude | Speed | Heading |
|---|---|---|---|---|---|
| 2026-04-28 16:48 | 51.45753 | 5.38935 | 83 ft | 0 kts | 123° |
| 2026-04-28 17:46 | 51.45755 | 5.38929 | 83 ft | 2 kts | 123° |
| 2026-04-28 17:46 | 51.45764 | 5.38910 | 83 ft | 2 kts | 126° |
| 2026-04-28 17:47 | 51.45773 | 5.38891 | 83 ft | 1 kts | 126° |
| 2026-04-28 17:47 | 51.45780 | 5.38873 | 83 ft | 2 kts | 124° |
| 2026-04-28 17:47 | 51.45789 | 5.38854 | 83 ft | 1 kts | 142° |
| 2026-04-28 17:47 | 51.45798 | 5.38847 | 83 ft | 2 kts | 175° |
| 2026-04-28 17:48 | 51.45816 | 5.38858 | 83 ft | 1 kts | 222° |
| 2026-04-28 17:48 | 51.45819 | 5.38862 | 83 ft | 0 kts | 219° |
| 2026-04-28 17:52 | 51.45810 | 5.38851 | 83 ft | 4 kts | 214° |
| 2026-04-28 17:52 | 51.45787 | 5.38816 | 83 ft | 4 kts | 251° |
| 2026-04-28 17:52 | 51.45808 | 5.38741 | 83 ft | 3 kts | 304° |
| 2026-04-28 17:53 | 51.45826 | 5.38700 | 83 ft | 6 kts | 305° |
| 2026-04-28 17:53 | 51.45861 | 5.38621 | 83 ft | 10 kts | 305° |
| 2026-04-28 17:53 | 51.45906 | 5.38517 | 83 ft | 11 kts | 304° |
| 2026-04-28 17:53 | 51.45951 | 5.38418 | 83 ft | 10 kts | 306° |
| 2026-04-28 17:54 | 51.45992 | 5.38326 | 83 ft | 9 kts | 300° |
| 2026-04-28 17:54 | 51.45969 | 5.38244 | 83 ft | 9 kts | 216° |
| 2026-04-28 17:54 | 51.45897 | 5.38164 | 83 ft | 15 kts | 214° |
| 2026-04-28 17:54 | 51.45803 | 5.38058 | 83 ft | 16 kts | 214° |
| 2026-04-28 17:55 | 51.45711 | 5.37956 | 83 ft | 15 kts | 214° |
| 2026-04-28 17:55 | 51.45625 | 5.37859 | 83 ft | 15 kts | 215° |
| 2026-04-28 17:55 | 51.45531 | 5.37754 | 83 ft | 17 kts | 215° |
| 2026-04-28 17:55 | 51.45423 | 5.37632 | 83 ft | 19 kts | 215° |
| 2026-04-28 17:56 | 51.45312 | 5.37507 | 83 ft | 19 kts | 214° |
| 2026-04-28 17:56 | 51.45204 | 5.37388 | 83 ft | 18 kts | 214° |
| 2026-04-28 17:56 | 51.45102 | 5.37273 | 83 ft | 17 kts | 214° |
| 2026-04-28 17:56 | 51.45003 | 5.37163 | 83 ft | 17 kts | 214° |
| 2026-04-28 17:57 | 51.44908 | 5.37055 | 83 ft | 16 kts | 214° |
| 2026-04-28 17:57 | 51.44815 | 5.36953 | 83 ft | 16 kts | 214° |
| 2026-04-28 17:57 | 51.44714 | 5.36839 | 83 ft | 18 kts | 215° |
| 2026-04-28 17:57 | 51.44600 | 5.36711 | 83 ft | 21 kts | 214° |
| 2026-04-28 17:58 | 51.44473 | 5.36569 | 83 ft | 22 kts | 214° |
| 2026-04-28 17:58 | 51.44346 | 5.36425 | 83 ft | 22 kts | 215° |
| 2026-04-28 17:58 | 51.44222 | 5.36288 | 83 ft | 20 kts | 215° |
| 2026-04-28 17:58 | 51.44119 | 5.36171 | 83 ft | 15 kts | 214° |
| 2026-04-28 17:59 | 51.44045 | 5.36088 | 83 ft | 9 kts | 214° |
| 2026-04-28 17:59 | 51.43998 | 5.36068 | 83 ft | 5 kts | 157° |
| 2026-04-28 17:59 | 51.43981 | 5.36088 | 83 ft | 0 kts | 133° |
| 2026-04-28 17:59 | 51.43981 | 5.36089 | 83 ft | 0 kts | 132° |
| 2026-04-28 18:00 | 51.43980 | 5.36091 | 83 ft | 1 kts | 131° |
| 2026-04-28 18:00 | 51.43960 | 5.36130 | 83 ft | 7 kts | 127° |
| 2026-04-28 18:01 | 51.43928 | 5.36204 | 83 ft | 6 kts | 110° |
| 2026-04-28 18:01 | 51.43950 | 5.36260 | 83 ft | 6 kts | 35° |
| 2026-04-28 18:01 | 51.44044 | 5.36365 | 83 ft | 41 kts | 34° |
| 2026-04-28 18:01 | 51.44466 | 5.36836 | 83 ft | 105 kts | 35° |
| 2026-04-28 18:02 | 51.45218 | 5.37684 | 84 ft | 156 kts | 34° |
| 2026-04-28 18:02 | 51.46185 | 5.38746 | 431 ft | 171 kts | 37° |
| 2026-04-28 18:02 | 51.47139 | 5.39789 | 1171 ft | 170 kts | 36° |
| 2026-04-28 18:02 | 51.48090 | 5.40853 | 1903 ft | 170 kts | 40° |
| 2026-04-28 18:03 | 51.49071 | 5.42033 | 2362 ft | 185 kts | 41° |
| 2026-04-28 18:03 | 51.50151 | 5.43248 | 2923 ft | 196 kts | 40° |
| 2026-04-28 18:03 | 51.51295 | 5.44515 | 3463 ft | 205 kts | 44° |
| 2026-04-28 18:03 | 51.52074 | 5.46384 | 3940 ft | 211 kts | 78° |
| 2026-04-28 18:04 | 51.51986 | 5.48816 | 4368 ft | 230 kts | 108° |
| 2026-04-28 18:04 | 51.51236 | 5.51099 | 5095 ft | 237 kts | 117° |
| 2026-04-28 18:04 | 51.50464 | 5.53372 | 5970 ft | 234 kts | 112° |
| 2026-04-28 18:04 | 51.49848 | 5.55701 | 6912 ft | 229 kts | 108° |
| 2026-04-28 18:05 | 51.49344 | 5.58116 | 7588 ft | 232 kts | 103° |
| 2026-04-28 18:05 | 51.49088 | 5.59819 | 7990 ft | 240 kts | 100° |
| 2026-04-28 18:05 | 51.48612 | 5.63457 | 8529 ft | 259 kts | 104° |
| 2026-04-28 18:05 | 51.47850 | 5.66073 | 9114 ft | 269 kts | 124° |
| 2026-04-28 18:06 | 51.46507 | 5.68215 | 9728 ft | 280 kts | 142° |
| 2026-04-28 18:06 | 51.44805 | 5.69903 | 10173 ft | 291 kts | 149° |
| 2026-04-28 18:06 | 51.43061 | 5.71462 | 10239 ft | 290 kts | 148° |
| 2026-04-28 18:06 | 51.41318 | 5.73100 | 10203 ft | 288 kts | 147° |
| 2026-04-28 18:07 | 51.39620 | 5.74792 | 10206 ft | 288 kts | 147° |
| 2026-04-28 18:07 | 51.37790 | 5.76035 | 10193 ft | 292 kts | 166° |
| 2026-04-28 18:07 | 51.35749 | 5.76485 | 10250 ft | 305 kts | 174° |
| 2026-04-28 18:07 | 51.33566 | 5.76744 | 10593 ft | 322 kts | 174° |
| 2026-04-28 18:08 | 51.31279 | 5.77052 | 10966 ft | 337 kts | 173° |
| 2026-04-28 18:08 | 51.28902 | 5.77436 | 11393 ft | 351 kts | 172° |
| 2026-04-28 18:08 | 51.26479 | 5.77874 | 12060 ft | 356 kts | 172° |
| 2026-04-28 18:08 | 51.24026 | 5.78343 | 12792 ft | 359 kts | 171° |
| 2026-04-28 18:09 | 51.21532 | 5.78831 | 13503 ft | 363 kts | 171° |
| 2026-04-28 18:09 | 51.19025 | 5.79324 | 14234 ft | 367 kts | 171° |
| 2026-04-28 18:09 | 51.16479 | 5.79825 | 14960 ft | 372 kts | 172° |
| 2026-04-28 18:09 | 51.13919 | 5.80326 | 15679 ft | 376 kts | 172° |
| 2026-04-28 18:10 | 51.11288 | 5.80838 | 16374 ft | 380 kts | 172° |
| 2026-04-28 18:10 | 51.08682 | 5.81344 | 17016 ft | 384 kts | 172° |
| 2026-04-28 18:10 | 51.06013 | 5.81861 | 17707 ft | 388 kts | 172° |
| 2026-04-28 18:10 | 51.03331 | 5.82380 | 18370 ft | 393 kts | 172° |
| 2026-04-28 18:11 | 51.00604 | 5.82907 | 19098 ft | 395 kts | 172° |
| 2026-04-28 18:11 | 50.97866 | 5.83435 | 19760 ft | 399 kts | 173° |
| 2026-04-28 18:11 | 50.95110 | 5.83966 | 20432 ft | 402 kts | 173° |
| 2026-04-28 18:11 | 50.92343 | 5.84498 | 21068 ft | 406 kts | 173° |
| 2026-04-28 18:12 | 50.89531 | 5.85039 | 21683 ft | 410 kts | 173° |
| 2026-04-28 18:12 | 50.86701 | 5.85582 | 22336 ft | 412 kts | 173° |
| 2026-04-28 18:12 | 50.83875 | 5.86123 | 22911 ft | 415 kts | 174° |
| 2026-04-28 18:12 | 50.80991 | 5.86675 | 23492 ft | 419 kts | 174° |
| 2026-04-28 18:13 | 50.78097 | 5.87228 | 24054 ft | 422 kts | 174° |
| 2026-04-28 18:13 | 50.75203 | 5.87780 | 24628 ft | 424 kts | 174° |
| 2026-04-28 18:13 | 50.72269 | 5.88339 | 25142 ft | 428 kts | 174° |
| 2026-04-28 18:13 | 50.69324 | 5.88900 | 25652 ft | 431 kts | 174° |
| 2026-04-28 18:14 | 50.66322 | 5.89471 | 26150 ft | 434 kts | 174° |
| 2026-04-28 18:14 | 50.63334 | 5.90039 | 26658 ft | 436 kts | 175° |
| 2026-04-28 18:14 | 50.60322 | 5.90611 | 27088 ft | 440 kts | 175° |
| 2026-04-28 18:14 | 50.57291 | 5.91186 | 27573 ft | 442 kts | 175° |
| 2026-04-28 18:15 | 50.54217 | 5.91767 | 28006 ft | 446 kts | 175° |
| 2026-04-28 18:15 | 50.51144 | 5.92347 | 28444 ft | 449 kts | 175° |
| 2026-04-28 18:15 | 50.48062 | 5.92928 | 28858 ft | 452 kts | 175° |
| 2026-04-28 18:15 | 50.44935 | 5.93518 | 29268 ft | 455 kts | 176° |
| 2026-04-28 18:16 | 50.41792 | 5.94109 | 29726 ft | 457 kts | 176° |
| 2026-04-28 18:16 | 50.38646 | 5.94701 | 30146 ft | 459 kts | 176° |
| 2026-04-28 18:16 | 50.35498 | 5.95296 | 30754 ft | 456 kts | 176° |
| 2026-04-28 18:16 | 50.32391 | 5.95882 | 31354 ft | 452 kts | 176° |
| 2026-04-28 18:17 | 50.29268 | 5.96471 | 31868 ft | 450 kts | 176° |
| 2026-04-28 18:17 | 50.26116 | 5.97062 | 32345 ft | 449 kts | 176° |
| 2026-04-28 18:17 | 50.23023 | 5.97641 | 32798 ft | 448 kts | 177° |
| 2026-04-28 18:17 | 50.19935 | 5.98217 | 33247 ft | 446 kts | 177° |
| 2026-04-28 18:18 | 50.16873 | 5.98787 | 33668 ft | 445 kts | 177° |
| 2026-04-28 18:18 | 50.13748 | 5.99370 | 34142 ft | 443 kts | 177° |
| 2026-04-28 18:18 | 50.10648 | 5.99947 | 34641 ft | 440 kts | 177° |
| 2026-04-28 18:18 | 50.08577 | 6.00332 | 34935 ft | 437 kts | 177° |
| 2026-04-28 18:19 | 50.04488 | 6.01090 | 35364 ft | 435 kts | 177° |
| 2026-04-28 18:19 | 50.01423 | 6.01655 | 35598 ft | 436 kts | 177° |
| 2026-04-28 18:19 | 49.98368 | 6.02217 | 35738 ft | 440 kts | 176° |
| 2026-04-28 18:19 | 49.95236 | 6.02793 | 35914 ft | 441 kts | 176° |
| 2026-04-28 18:20 | 49.92149 | 6.03361 | 36085 ft | 442 kts | 176° |
| 2026-04-28 18:20 | 49.89035 | 6.03933 | 36235 ft | 444 kts | 176° |
| 2026-04-28 18:20 | 49.85896 | 6.04511 | 36427 ft | 445 kts | 176° |
| 2026-04-28 18:20 | 49.82803 | 6.05078 | 36681 ft | 446 kts | 176° |
| 2026-04-28 18:21 | 49.79683 | 6.05651 | 36959 ft | 446 kts | 176° |
| 2026-04-28 18:21 | 49.76551 | 6.06226 | 37110 ft | 447 kts | 176° |
| 2026-04-28 18:21 | 49.70334 | 6.07363 | 37105 ft | 446 kts | 176° |
| 2026-04-28 18:22 | 49.64173 | 6.08488 | 37101 ft | 446 kts | 176° |
| 2026-04-28 18:22 | 49.57970 | 6.09619 | 37102 ft | 446 kts | 177° |
| 2026-04-28 18:23 | 49.51773 | 6.10842 | 37090 ft | 448 kts | 173° |
| 2026-04-28 18:23 | 49.45792 | 6.14074 | 37082 ft | 460 kts | 152° |
| 2026-04-28 18:24 | 49.41384 | 6.18841 | 37080 ft | 464 kts | 145° |
| 2026-04-28 18:24 | 49.35531 | 6.26124 | 37072 ft | 465 kts | 143° |
| 2026-04-28 18:25 | 49.30536 | 6.32456 | 37064 ft | 467 kts | 143° |
| 2026-04-28 18:26 | 49.22963 | 6.41905 | 37065 ft | 468 kts | 144° |
| 2026-04-28 18:26 | 49.17834 | 6.48216 | 37059 ft | 468 kts | 144° |
| 2026-04-28 18:27 | 49.12775 | 6.54406 | 37066 ft | 468 kts | 144° |
| 2026-04-28 18:27 | 49.07681 | 6.60615 | 37060 ft | 469 kts | 145° |
| 2026-04-28 18:28 | 49.02518 | 6.66883 | 37066 ft | 469 kts | 146° |
| 2026-04-28 18:28 | 48.97209 | 6.72582 | 37060 ft | 465 kts | 155° |
| 2026-04-28 18:29 | 48.91430 | 6.76982 | 37048 ft | 461 kts | 161° |
| 2026-04-28 18:29 | 48.85573 | 6.80855 | 37054 ft | 462 kts | 162° |
| 2026-04-28 18:30 | 48.79701 | 6.84691 | 37041 ft | 460 kts | 162° |
| 2026-04-28 18:30 | 48.73808 | 6.88587 | 37056 ft | 463 kts | 161° |
| 2026-04-28 18:31 | 48.67909 | 6.92531 | 37047 ft | 461 kts | 161° |
| 2026-04-28 18:31 | 48.62028 | 6.96480 | 37051 ft | 461 kts | 161° |
| 2026-04-28 18:32 | 48.56168 | 7.00417 | 37067 ft | 462 kts | 161° |
| 2026-04-28 18:32 | 48.50309 | 7.04348 | 37059 ft | 462 kts | 161° |
| 2026-04-28 18:33 | 48.44378 | 7.08320 | 37058 ft | 462 kts | 161° |
| 2026-04-28 18:33 | 48.38445 | 7.12283 | 37051 ft | 462 kts | 161° |
| 2026-04-28 18:34 | 48.32547 | 7.16212 | 37050 ft | 461 kts | 161° |
| 2026-04-28 18:34 | 48.26656 | 7.20127 | 37051 ft | 462 kts | 161° |
| 2026-04-28 18:35 | 48.20792 | 7.24011 | 37053 ft | 461 kts | 161° |
| 2026-04-28 18:35 | 48.14930 | 7.27887 | 37052 ft | 464 kts | 161° |
| 2026-04-28 18:36 | 48.09007 | 7.31792 | 37045 ft | 461 kts | 161° |
| 2026-04-28 18:36 | 48.03092 | 7.35684 | 37043 ft | 463 kts | 161° |
| 2026-04-28 18:37 | 47.97184 | 7.39562 | 37042 ft | 462 kts | 161° |
| 2026-04-28 18:37 | 47.91273 | 7.43433 | 37042 ft | 462 kts | 161° |
| 2026-04-28 18:38 | 47.85309 | 7.47326 | 37039 ft | 462 kts | 161° |
| 2026-04-28 18:38 | 47.79368 | 7.51195 | 37039 ft | 463 kts | 161° |
| 2026-04-28 18:39 | 47.73747 | 7.56071 | 37046 ft | 474 kts | 143° |
| 2026-04-28 18:39 | 47.69279 | 7.63462 | 37053 ft | 482 kts | 130° |
| 2026-04-28 18:40 | 47.65262 | 7.71567 | 37056 ft | 483 kts | 129° |
| 2026-04-28 18:40 | 47.61359 | 7.79687 | 37055 ft | 481 kts | 128° |
| 2026-04-28 18:41 | 47.57423 | 7.87758 | 37056 ft | 483 kts | 129° |
| 2026-04-28 18:41 | 47.53467 | 7.95742 | 37055 ft | 483 kts | 129° |
| 2026-04-28 18:42 | 47.49441 | 8.03785 | 37051 ft | 483 kts | 129° |
| 2026-04-28 18:42 | 47.45411 | 8.11790 | 37057 ft | 482 kts | 129° |
| 2026-04-28 18:43 | 47.41403 | 8.19723 | 37068 ft | 484 kts | 129° |
| 2026-04-28 18:43 | 47.37410 | 8.27605 | 37064 ft | 483 kts | 129° |
| 2026-04-28 18:44 | 47.33362 | 8.35572 | 37064 ft | 483 kts | 129° |
| 2026-04-28 18:44 | 47.27332 | 8.47398 | 37074 ft | 484 kts | 129° |
| 2026-04-28 18:45 | 47.23272 | 8.55411 | 37078 ft | 484 kts | 128° |
| 2026-04-28 18:45 | 47.19306 | 8.63435 | 37084 ft | 483 kts | 128° |
| 2026-04-28 18:46 | 47.15375 | 8.71421 | 37090 ft | 483 kts | 129° |
| 2026-04-28 18:46 | 47.11425 | 8.79410 | 37106 ft | 483 kts | 128° |
| 2026-04-28 18:47 | 47.07465 | 8.87375 | 37121 ft | 484 kts | 128° |
| 2026-04-28 18:47 | 47.03478 | 8.95353 | 37110 ft | 484 kts | 128° |
| 2026-04-28 18:48 | 46.99471 | 9.03345 | 37102 ft | 484 kts | 129° |
| 2026-04-28 18:48 | 46.95502 | 9.11239 | 37103 ft | 482 kts | 128° |
| 2026-04-28 18:49 | 46.92858 | 9.16482 | 37104 ft | 484 kts | 128° |
| 2026-04-28 18:49 | 46.87550 | 9.26983 | 37109 ft | 483 kts | 128° |
| 2026-04-28 18:50 | 46.83512 | 9.34943 | 37115 ft | 484 kts | 128° |
| 2026-04-28 18:50 | 46.79512 | 9.42809 | 37114 ft | 483 kts | 128° |
| 2026-04-28 18:51 | 46.75519 | 9.50633 | 37109 ft | 483 kts | 128° |
| 2026-04-28 18:51 | 46.71513 | 9.58462 | 37100 ft | 483 kts | 128° |
| 2026-04-28 18:52 | 46.67490 | 9.66301 | 37102 ft | 483 kts | 129° |
| 2026-04-28 18:52 | 46.63479 | 9.74095 | 37114 ft | 481 kts | 129° |
| 2026-04-28 18:53 | 46.59446 | 9.81906 | 37119 ft | 482 kts | 129° |
| 2026-04-28 18:53 | 46.57446 | 9.85774 | 36850 ft | 478 kts | 129° |
| 2026-04-28 18:53 | 46.55461 | 9.89607 | 36453 ft | 472 kts | 129° |
| 2026-04-28 18:54 | 46.53513 | 9.93364 | 35988 ft | 472 kts | 129° |
| 2026-04-28 18:54 | 46.51528 | 9.97185 | 35336 ft | 475 kts | 129° |
| 2026-04-28 18:54 | 46.49503 | 10.01000 | 34598 ft | 479 kts | 131° |
| 2026-04-28 18:54 | 46.47357 | 10.04673 | 33750 ft | 481 kts | 136° |
| 2026-04-28 18:55 | 46.45011 | 10.08054 | 32921 ft | 481 kts | 141° |
| 2026-04-28 18:55 | 46.43338 | 10.10218 | 32392 ft | 481 kts | 142° |
| 2026-04-28 18:55 | 46.39964 | 10.14286 | 31760 ft | 472 kts | 144° |
| 2026-04-28 18:55 | 46.37445 | 10.17219 | 31237 ft | 467 kts | 145° |
| 2026-04-28 18:56 | 46.34920 | 10.20136 | 30701 ft | 462 kts | 145° |
| 2026-04-28 18:56 | 46.32406 | 10.23044 | 30163 ft | 458 kts | 145° |
| 2026-04-28 18:56 | 46.29940 | 10.25912 | 29629 ft | 454 kts | 144° |
| 2026-04-28 18:56 | 46.27525 | 10.28736 | 29102 ft | 450 kts | 144° |
| 2026-04-28 18:57 | 46.25109 | 10.31572 | 28559 ft | 446 kts | 144° |
| 2026-04-28 18:57 | 46.22731 | 10.34372 | 28031 ft | 442 kts | 144° |
| 2026-04-28 18:57 | 46.20355 | 10.37176 | 27508 ft | 439 kts | 143° |
| 2026-04-28 18:57 | 46.18016 | 10.39940 | 26980 ft | 435 kts | 143° |
| 2026-04-28 18:58 | 46.15693 | 10.42685 | 26450 ft | 431 kts | 143° |
| 2026-04-28 18:58 | 46.13390 | 10.45407 | 25926 ft | 427 kts | 143° |
| 2026-04-28 18:58 | 46.11114 | 10.48095 | 25409 ft | 424 kts | 143° |
| 2026-04-28 18:58 | 46.08840 | 10.50779 | 24892 ft | 420 kts | 143° |
| 2026-04-28 18:59 | 46.06620 | 10.53397 | 24380 ft | 417 kts | 143° |
| 2026-04-28 18:59 | 46.04370 | 10.56048 | 23857 ft | 413 kts | 142° |
| 2026-04-28 18:59 | 46.02185 | 10.58619 | 23346 ft | 410 kts | 142° |
| 2026-04-28 18:59 | 45.99988 | 10.61203 | 22833 ft | 407 kts | 142° |
| 2026-04-28 19:00 | 45.97809 | 10.63764 | 22317 ft | 404 kts | 142° |
| 2026-04-28 19:00 | 45.95643 | 10.66307 | 21805 ft | 401 kts | 143° |
| 2026-04-28 19:00 | 45.93495 | 10.68825 | 21289 ft | 398 kts | 143° |
| 2026-04-28 19:00 | 45.91359 | 10.71326 | 20771 ft | 395 kts | 143° |
| 2026-04-28 19:01 | 45.89241 | 10.73800 | 20248 ft | 392 kts | 143° |
| 2026-04-28 19:01 | 45.87171 | 10.76217 | 19747 ft | 389 kts | 143° |
| 2026-04-28 19:01 | 45.85085 | 10.78649 | 19231 ft | 385 kts | 143° |
| 2026-04-28 19:01 | 45.83019 | 10.81057 | 18720 ft | 382 kts | 143° |
| 2026-04-28 19:02 | 45.80969 | 10.83444 | 18203 ft | 379 kts | 143° |
| 2026-04-28 19:02 | 45.78919 | 10.85831 | 17686 ft | 376 kts | 142° |
| 2026-04-28 19:02 | 45.76914 | 10.88165 | 17184 ft | 373 kts | 143° |
| 2026-04-28 19:02 | 45.74905 | 10.90501 | 16694 ft | 370 kts | 143° |
| 2026-04-28 19:03 | 45.72933 | 10.92792 | 16190 ft | 367 kts | 143° |
| 2026-04-28 19:03 | 45.70961 | 10.95080 | 15702 ft | 364 kts | 143° |
| 2026-04-28 19:03 | 45.69001 | 10.97352 | 15212 ft | 362 kts | 143° |
| 2026-04-28 19:03 | 45.67084 | 10.99633 | 14706 ft | 359 kts | 139° |
| 2026-04-28 19:04 | 45.65414 | 11.02293 | 14215 ft | 358 kts | 124° |
| 2026-04-28 19:04 | 45.64444 | 11.05522 | 13750 ft | 356 kts | 102° |
| 2026-04-28 19:04 | 45.64237 | 11.09025 | 13296 ft | 353 kts | 91° |
| 2026-04-28 19:04 | 45.64240 | 11.12463 | 12806 ft | 351 kts | 90° |
| 2026-04-28 19:05 | 45.64259 | 11.15920 | 12348 ft | 348 kts | 90° |
| 2026-04-28 19:05 | 45.64265 | 11.19347 | 11862 ft | 346 kts | 90° |
| 2026-04-28 19:05 | 45.64254 | 11.22775 | 11388 ft | 343 kts | 90° |
| 2026-04-28 19:05 | 45.64228 | 11.26179 | 10926 ft | 340 kts | 91° |
| 2026-04-28 19:06 | 45.64194 | 11.29507 | 10508 ft | 336 kts | 91° |
| 2026-04-28 19:06 | 45.64171 | 11.31683 | 10351 ft | 329 kts | 91° |
| 2026-04-28 19:06 | 45.64123 | 11.35938 | 10212 ft | 311 kts | 91° |
| 2026-04-28 19:06 | 45.64086 | 11.38975 | 10034 ft | 301 kts | 91° |
| 2026-04-28 19:07 | 45.64049 | 11.41909 | 9644 ft | 300 kts | 91° |
| 2026-04-28 19:07 | 45.64012 | 11.44892 | 9251 ft | 298 kts | 91° |
| 2026-04-28 19:07 | 45.63983 | 11.47826 | 8880 ft | 296 kts | 91° |
| 2026-04-28 19:07 | 45.63959 | 11.50778 | 8508 ft | 294 kts | 91° |
| 2026-04-28 19:08 | 45.63937 | 11.53638 | 8134 ft | 288 kts | 91° |
| 2026-04-28 19:08 | 45.63913 | 11.56437 | 7789 ft | 279 kts | 91° |
| 2026-04-28 19:08 | 45.63876 | 11.59187 | 7457 ft | 270 kts | 91° |
| 2026-04-28 19:08 | 45.63833 | 11.61803 | 7115 ft | 265 kts | 91° |
| 2026-04-28 19:09 | 45.63779 | 11.64425 | 6768 ft | 259 kts | 93° |
| 2026-04-28 19:09 | 45.63494 | 11.66914 | 6455 ft | 253 kts | 109° |
| 2026-04-28 19:09 | 45.62578 | 11.68948 | 6160 ft | 244 kts | 136° |
| 2026-04-28 19:09 | 45.61239 | 11.70399 | 5807 ft | 239 kts | 144° |
| 2026-04-28 19:10 | 45.59914 | 11.71747 | 5508 ft | 233 kts | 143° |
| 2026-04-28 19:10 | 45.58636 | 11.73108 | 5281 ft | 224 kts | 142° |
| 2026-04-28 19:10 | 45.57423 | 11.74422 | 5188 ft | 210 kts | 142° |
| 2026-04-28 19:10 | 45.56310 | 11.75627 | 5136 ft | 194 kts | 142° |
| 2026-04-28 19:11 | 45.55287 | 11.76735 | 5081 ft | 177 kts | 140° |
| 2026-04-28 19:11 | 45.54467 | 11.77953 | 4996 ft | 165 kts | 117° |
| 2026-04-28 19:11 | 45.54227 | 11.79530 | 4949 ft | 168 kts | 86° |
| 2026-04-28 19:11 | 45.54517 | 11.81148 | 4750 ft | 168 kts | 65° |
| 2026-04-28 19:12 | 45.55036 | 11.82624 | 4565 ft | 165 kts | 66° |
| 2026-04-28 19:12 | 45.55469 | 11.84132 | 4415 ft | 165 kts | 71° |
| 2026-04-28 19:12 | 45.55836 | 11.85695 | 4258 ft | 165 kts | 71° |
| 2026-04-28 19:12 | 45.56219 | 11.87222 | 4102 ft | 163 kts | 70° |
| 2026-04-28 19:13 | 45.56614 | 11.88715 | 4007 ft | 158 kts | 69° |
| 2026-04-28 19:13 | 45.56998 | 11.90144 | 3989 ft | 151 kts | 69° |
| 2026-04-28 19:13 | 45.57375 | 11.91543 | 3972 ft | 151 kts | 69° |
| 2026-04-28 19:13 | 45.57753 | 11.92946 | 3798 ft | 152 kts | 69° |
| 2026-04-28 19:14 | 45.58125 | 11.94327 | 3521 ft | 146 kts | 69° |
| 2026-04-28 19:14 | 45.58486 | 11.95668 | 3395 ft | 145 kts | 68° |
| 2026-04-28 19:14 | 45.58849 | 11.97015 | 3178 ft | 147 kts | 68° |
| 2026-04-28 19:14 | 45.59215 | 11.98377 | 2920 ft | 144 kts | 68° |
| 2026-04-28 19:15 | 45.59569 | 11.99691 | 2769 ft | 145 kts | 69° |
| 2026-04-28 19:15 | 45.59934 | 12.01048 | 2544 ft | 145 kts | 69° |
| 2026-04-28 19:15 | 45.60290 | 12.02376 | 2358 ft | 145 kts | 68° |
| 2026-04-28 19:15 | 45.60531 | 12.03270 | 2229 ft | 145 kts | 68° |
| 2026-04-28 19:16 | 45.61011 | 12.05060 | 1966 ft | 144 kts | 68° |
| 2026-04-28 19:16 | 45.61365 | 12.06381 | 1777 ft | 144 kts | 68° |
| 2026-04-28 19:16 | 45.61723 | 12.07717 | 1581 ft | 143 kts | 68° |
| 2026-04-28 19:16 | 45.62082 | 12.09057 | 1385 ft | 144 kts | 69° |
| 2026-04-28 19:17 | 45.62439 | 12.10392 | 1194 ft | 144 kts | 69° |
| 2026-04-28 19:17 | 45.62796 | 12.11724 | 999 ft | 144 kts | 69° |
| 2026-04-28 19:17 | 45.63158 | 12.13061 | 803 ft | 144 kts | 69° |
| 2026-04-28 19:17 | 45.63511 | 12.14404 | 617 ft | 145 kts | 70° |
| 2026-04-28 19:18 | 45.63869 | 12.15742 | 424 ft | 145 kts | 69° |
| 2026-04-28 19:18 | 45.64232 | 12.17080 | 243 ft | 145 kts | 70° |
| 2026-04-28 19:18 | 45.64588 | 12.18421 | 59 ft | 142 kts | 70° |
| 2026-04-28 19:18 | 45.64905 | 12.19621 | 48 ft | 109 kts | 69° |
| 2026-04-28 19:19 | 45.65103 | 12.20367 | 48 ft | 56 kts | 68° |
| 2026-04-28 19:19 | 45.65196 | 12.20715 | 46 ft | 18 kts | 69° |
| 2026-04-28 19:19 | 45.65232 | 12.20792 | 48 ft | 7 kts | 10° |
| 2026-04-28 19:19 | 45.65287 | 12.20772 | 47 ft | 8 kts | 340° |
| 2026-04-28 19:20 | 45.65335 | 12.20747 | 48 ft | 6 kts | 340° |
| 2026-04-28 19:20 | 45.65374 | 12.20720 | 48 ft | 5 kts | 313° |
| 2026-04-28 19:20 | 45.65377 | 12.20666 | 48 ft | 5 kts | 255° |
| 2026-04-28 19:20 | 45.65366 | 12.20624 | 49 ft | 3 kts | 246° |
| 2026-04-28 19:21 | 45.65356 | 12.20589 | 49 ft | 3 kts | 259° |
| 2026-04-28 19:21 | 45.65366 | 12.20565 | 49 ft | 2 kts | 323° |
| 2026-04-28 19:21 | 45.65390 | 12.20548 | 49 ft | 3 kts | 338° |
| 2026-04-28 19:21 | 45.65406 | 12.20539 | 50 ft | 1 kts | 338° |
| 2026-04-28 19:22 | 45.65408 | 12.20538 | 50 ft | 0 kts | 338° |